Time;durP1;ratioP1;P1;durP2;ratioP2;P2;SDS_P1;SDS_P2;PMS_P1;PMS_P2;Temp;Humidity;BMP_temperature;BMP_pressure;BME280_temperature;BME280_humidity;BME280_pressure;Samples;Min_cycle;Max_cycle;Signal;HPM_P1;HPM_P2
2023/01/04 00:00:11;;;;;;;5.18;2.10;;;8.30;99.90;;;;;;4883250;29;20540;-88
2023/01/04 00:02:36;;;;;;;5.18;2.33;;;8.40;99.90;;;;;;4897554;29;20070;-88
2023/01/04 00:05:02;;;;;;;7.55;1.73;;;8.50;99.90;;;;;;4894566;29;20114;-87
2023/01/04 00:07:29;;;;;;;7.25;2.00;;;8.50;99.90;;;;;;4911155;29;20050;-88
2023/01/04 00:09:55;;;;;;;9.98;2.17;;;8.60;99.90;;;;;;4887629;29;20035;-88
2023/01/04 00:12:21;;;;;;;13.43;2.17;;;8.40;99.90;;;;;;4900039;29;20043;-88
2023/01/04 00:14:47;;;;;;;5.20;1.60;;;8.40;99.90;;;;;;4886475;29;20461;-88
2023/01/04 00:17:13;;;;;;;10.17;2.67;;;8.50;99.90;;;;;;4868063;29;20121;-88
2023/01/04 00:19:39;;;;;;;5.63;2.30;;;8.50;99.90;;;;;;4870376;29;20391;-89
2023/01/04 00:22:05;;;;;;;5.60;2.30;;;8.50;99.90;;;;;;4884207;29;20118;-88
2023/01/04 00:24:31;;;;;;;10.77;2.28;;;8.50;99.90;;;;;;4870050;29;20556;-88
2023/01/04 00:26:56;;;;;;;10.23;2.30;;;8.60;99.90;;;;;;4879671;29;20132;-88
2023/01/04 00:29:22;;;;;;;7.27;2.37;;;8.50;99.90;;;;;;4913613;29;20040;-88
2023/01/04 00:31:48;;;;;;;8.60;2.42;;;8.40;99.90;;;;;;4889807;29;20733;-89
2023/01/04 00:34:16;;;;;;;7.75;2.25;;;8.30;99.90;;;;;;4884999;29;20066;-88
2023/01/04 00:36:42;;;;;;;11.20;2.17;;;8.50;99.90;;;;;;4892656;29;20087;-88
2023/01/04 00:39:13;;;;;;;5.57;2.67;;;8.50;99.90;;;;;;4890324;29;20078;-88
2023/01/04 00:41:50;;;;;;;5.53;2.83;;;9.00;99.90;;;;;;4896536;29;20036;-88
2023/01/04 00:44:20;;;;;;;6.15;2.50;;;8.40;99.90;;;;;;4913245;29;20061;-88
2023/01/04 00:46:46;;;;;;;8.15;2.38;;;8.30;99.90;;;;;;4892246;29;20122;-87
2023/01/04 00:49:12;;;;;;;8.43;2.83;;;8.30;99.90;;;;;;4899813;29;20558;-88
2023/01/04 00:51:40;;;;;;;7.22;2.30;;;8.20;99.90;;;;;;4887478;29;20124;-88
2023/01/04 00:54:14;;;;;;;6.70;3.17;;;8.30;99.90;;;;;;4884007;29;20047;-87
2023/01/04 00:56:39;;;;;;;7.13;2.60;;;8.20;99.90;;;;;;4886830;29;20047;-87
2023/01/04 00:59:05;;;;;;;5.40;2.75;;;8.10;99.90;;;;;;4869665;29;20032;-88
2023/01/04 01:01:33;;;;;;;5.78;2.95;;;8.20;99.90;;;;;;4867345;29;20055;-88
2023/01/04 01:04:01;;;;;;;6.57;2.83;;;8.20;99.90;;;;;;4907444;29;20408;-88
2023/01/04 01:06:28;;;;;;;7.35;2.38;;;8.20;99.90;;;;;;4899604;29;20432;-88
2023/01/04 01:08:54;;;;;;;6.55;2.55;;;8.20;99.90;;;;;;4894728;29;20054;-88
2023/01/04 01:11:20;;;;;;;8.15;2.95;;;8.20;99.90;;;;;;4884050;29;20044;-88
2023/01/04 01:13:46;;;;;;;5.10;2.60;;;8.30;99.90;;;;;;4883946;29;20748;-88
2023/01/04 01:16:19;;;;;;;7.00;3.58;;;8.30;99.90;;;;;;4882602;29;20091;-88
2023/01/04 01:18:46;;;;;;;8.07;2.92;;;8.30;99.90;;;;;;4899184;29;20043;-87
2023/01/04 01:21:21;;;;;;;8.68;3.08;;;8.20;99.90;;;;;;4880694;29;20115;-88
2023/01/04 01:23:48;;;;;;;7.63;3.00;;;8.20;99.90;;;;;;4893266;29;20040;-87
2023/01/04 01:26:18;;;;;;;4.93;2.63;;;8.30;99.90;;;;;;4917437;29;20113;-88
2023/01/04 01:28:44;;;;;;;8.48;2.88;;;8.20;99.90;;;;;;4923301;29;20099;-87
2023/01/04 01:31:22;;;;;;;8.23;2.45;;;8.20;99.90;;;;;;4918557;29;20036;-87
2023/01/04 01:33:49;;;;;;;5.13;2.28;;;8.20;99.90;;;;;;4899229;29;20050;-88
2023/01/04 01:36:17;;;;;;;3.30;2.13;;;8.10;99.90;;;;;;4894573;29;20506;-87
2023/01/04 01:38:43;;;;;;;15.38;3.47;;;8.10;99.90;;;;;;4890275;29;20040;-87
2023/01/04 01:41:34;;;;;;;5.50;2.65;;;8.20;99.90;;;;;;4894460;29;20122;-87
2023/01/04 01:44:25;;;;;;;8.18;2.78;;;8.20;99.90;;;;;;4909027;29;20051;-86
2023/01/04 01:46:53;;;;;;;6.03;2.88;;;8.20;99.90;;;;;;4892984;29;20273;-86
2023/01/04 01:49:24;;;;;;;8.55;3.00;;;8.20;99.90;;;;;;4890330;29;20052;-86
2023/01/04 01:51:53;;;;;;;6.10;2.83;;;8.10;99.90;;;;;;4890867;29;20039;-86
2023/01/04 01:54:25;;;;;;;5.53;3.28;;;8.20;99.90;;;;;;4896761;29;20044;-87
2023/01/04 01:56:53;;;;;;;5.80;2.83;;;8.20;99.90;;;;;;4892148;29;20139;-86
2023/01/04 01:59:20;;;;;;;5.82;2.65;;;8.10;99.90;;;;;;4882445;29;20043;-86
2023/01/04 02:01:47;;;;;;;6.57;2.67;;;8.20;99.90;;;;;;4892235;29;20032;-86
2023/01/04 02:04:14;;;;;;;9.85;2.47;;;8.20;99.90;;;;;;4895044;29;20046;-86
2023/01/04 02:06:45;;;;;;;3.53;2.55;;;8.20;99.90;;;;;;4890241;29;20123;-86
2023/01/04 02:09:12;;;;;;;5.60;2.40;;;8.20;99.90;;;;;;4888153;29;20461;-86
2023/01/04 02:11:40;;;;;;;7.25;2.53;;;8.20;99.90;;;;;;4893176;29;20042;-85
2023/01/04 02:14:26;;;;;;;4.77;2.67;;;8.20;99.90;;;;;;4867741;29;20044;-85
2023/01/04 02:17:05;;;;;;;4.47;2.05;;;8.20;99.90;;;;;;4881725;29;20295;-86
2023/01/04 02:19:57;;;;;;;5.18;2.00;;;8.30;99.90;;;;;;4911524;29;20044;-86
2023/01/04 02:23:07;;;;;;;4.28;2.35;;;8.30;99.90;;;;;;4892837;29;20035;-86
2023/01/04 02:25:53;;;;;;;7.35;2.33;;;8.40;99.90;;;;;;4836800;29;20046;-85
2023/01/04 02:28:37;;;;;;;3.92;1.95;;;8.30;99.90;;;;;;4860634;29;20059;-85
2023/01/04 02:31:08;;;;;;;3.70;1.77;;;8.30;99.90;;;;;;4890623;29;20563;-85
2023/01/04 02:33:57;;;;;;;3.33;1.63;;;8.30;99.90;;;;;;4895156;29;20047;-85
2023/01/04 02:37:01;;;;;;;2.90;1.77;;;8.30;99.90;;;;;;4891990;29;20104;-86
2023/01/04 02:39:39;;;;;;;2.47;1.52;;;8.30;99.90;;;;;;4891856;29;20063;-85
2023/01/04 02:44:51;;;;;;;3.33;1.42;;;8.30;99.90;;;;;;4900906;29;20043;-85
2023/01/04 02:45:18;;;;;;;2.83;1.58;;;8.40;99.90;;;;;;4920827;29;20058;-86
2023/01/04 02:50:53;;;;;;;2.70;1.85;;;8.70;99.90;;;;;;4880403;29;20051;-85
2023/01/04 02:53:24;;;;;;;1.92;1.50;;;8.50;99.90;;;;;;4897669;29;20031;-86
2023/01/04 02:56:11;;;;;;;2.67;1.45;;;8.50;99.90;;;;;;4893811;29;20096;-86
2023/01/04 02:59:01;;;;;;;4.15;1.63;;;8.50;99.90;;;;;;4888477;29;20040;-85
2023/01/04 03:07:40;;;;;;;2.97;1.10;;;8.70;99.90;;;;;;4908417;29;20048;-87
2023/01/04 03:10:20;;;;;;;2.70;1.20;;;8.70;99.90;;;;;;4892590;29;20051;-87
2023/01/04 03:12:53;;;;;;;2.10;1.23;;;8.80;99.90;;;;;;4893216;29;20048;-87
2023/01/04 03:15:26;;;;;;;2.65;1.13;;;8.80;99.90;;;;;;4894063;29;20560;-87
2023/01/04 03:17:57;;;;;;;1.15;0.90;;;8.80;99.90;;;;;;4897817;29;20051;-86
2023/01/04 03:20:25;;;;;;;1.58;1.02;;;8.70;99.90;;;;;;4894286;29;20039;-85
2023/01/04 03:37:32;;;;;;;0.73;0.60;;;9.10;99.90;;;;;;4900751;29;20067;-85
2023/01/04 03:49:56;;;;;;;1.25;0.68;;;9.20;99.90;;;;;;4837945;29;20085;-84
2023/01/04 03:52:25;;;;;;;1.77;0.98;;;9.30;99.90;;;;;;4823181;29;20450;-84
2023/01/04 03:54:53;;;;;;;3.28;0.90;;;9.30;99.90;;;;;;4864934;29;20131;-83
2023/01/04 03:57:19;;;;;;;1.70;1.00;;;9.30;99.90;;;;;;4873939;29;20481;-83
2023/01/04 03:59:48;;;;;;;;;;;9.40;99.90;;;;;;4887927;29;20090;-83
2023/01/04 04:02:18;;;;;;;2.50;0.80;;;9.50;99.90;;;;;;4896808;29;19919;-84
2023/01/04 04:10:13;;;;;;;1.38;0.95;;;9.60;99.90;;;;;;4894340;29;20083;-84
2023/01/04 04:12:39;;;;;;;1.80;1.10;;;9.60;99.90;;;;;;4879907;29;20481;-85
2023/01/04 04:15:05;;;;;;;2.13;1.27;;;9.70;99.90;;;;;;4863022;29;20051;-85
2023/01/04 04:17:31;;;;;;;1.45;1.00;;;9.60;99.90;;;;;;4897845;29;20048;-84
2023/01/04 04:19:56;;;;;;;1.15;0.88;;;9.70;99.90;;;;;;4881695;29;20051;-85
2023/01/04 04:22:22;;;;;;;2.35;1.38;;;9.60;99.90;;;;;;4893365;29;20047;-86
2023/01/04 04:24:48;;;;;;;1.80;1.48;;;9.70;99.90;;;;;;4895699;29;20122;-86
2023/01/04 04:27:14;;;;;;;1.17;1.03;;;9.80;99.90;;;;;;4873885;29;20051;-85
2023/01/04 04:29:39;;;;;;;3.40;1.58;;;9.80;99.90;;;;;;4879726;29;20314;-85
2023/01/04 04:32:05;;;;;;;2.15;1.40;;;9.90;99.90;;;;;;4881804;29;20051;-86
2023/01/04 04:34:31;;;;;;;3.83;1.87;;;9.80;99.90;;;;;;4866763;29;20126;-86
2023/01/04 04:36:56;;;;;;;1.95;1.30;;;9.80;99.90;;;;;;4883237;29;20284;-86
2023/01/04 04:39:22;;;;;;;2.22;1.70;;;9.90;99.90;;;;;;4867523;29;20489;-86
2023/01/04 04:41:48;;;;;;;2.90;1.93;;;9.90;99.90;;;;;;4886147;29;20031;-85
2023/01/04 04:44:18;;;;;;;3.03;2.10;;;10.10;99.90;;;;;;4883119;29;20284;-85
2023/01/04 04:46:45;;;;;;;2.92;2.15;;;10.00;99.90;;;;;;4883308;29;20852;-86
2023/01/04 04:49:12;;;;;;;2.90;2.28;;;10.00;99.90;;;;;;4866893;29;20409;-85
2023/01/04 04:51:39;;;;;;;4.63;2.13;;;10.10;99.90;;;;;;4892684;29;20032;-84
2023/01/04 04:54:07;;;;;;;2.75;2.10;;;10.20;99.90;;;;;;4882759;29;20040;-83
2023/01/04 04:56:35;;;;;;;4.38;2.20;;;10.20;99.90;;;;;;4880768;29;20048;-84
2023/01/04 04:59:02;;;;;;;2.72;2.17;;;10.20;99.90;;;;;;4885099;29;20036;-83
2023/01/04 05:01:29;;;;;;;3.88;2.65;;;10.30;99.90;;;;;;4897143;29;20115;-83
2023/01/04 05:03:55;;;;;;;3.47;2.30;;;10.30;99.90;;;;;;4866698;29;20370;-84
2023/01/04 05:06:20;;;;;;;3.10;2.40;;;10.30;99.90;;;;;;4867725;29;20107;-84
2023/01/04 05:08:46;;;;;;;4.78;2.67;;;10.40;99.90;;;;;;4882926;29;20040;-84
2023/01/04 05:11:13;;;;;;;4.07;2.20;;;10.40;99.90;;;;;;4887422;29;20123;-83
2023/01/04 05:13:38;;;;;;;;;;;10.40;99.90;;;;;;4888175;29;20039;-83
2023/01/04 05:16:05;;;;;;;2.85;2.10;;;10.40;99.90;;;;;;4869231;29;20375;-84
2023/01/04 05:18:31;;;;;;;4.00;2.70;;;10.40;99.90;;;;;;4878159;29;20110;-83
2023/01/04 05:20:57;;;;;;;3.42;2.20;;;10.50;99.90;;;;;;4882922;29;20093;-84
2023/01/04 05:23:23;;;;;;;3.92;1.90;;;10.50;99.90;;;;;;4883306;29;20051;-83
2023/01/04 05:25:59;;;;;;;3.50;2.22;;;10.40;99.90;;;;;;4896593;29;20035;-83
2023/01/04 05:28:25;;;;;;;3.35;2.40;;;10.50;99.90;;;;;;4885640;29;20396;-84
2023/01/04 05:30:52;;;;;;;2.85;1.77;;;10.40;99.90;;;;;;4881630;29;20047;-83
2023/01/04 05:33:26;;;;;;;2.90;2.00;;;10.50;99.90;;;;;;4892147;29;20139;-84
2023/01/04 05:35:53;;;;;;;2.88;2.00;;;10.50;99.90;;;;;;4883599;29;20123;-84
2023/01/04 05:38:20;;;;;;;3.25;2.40;;;10.60;99.90;;;;;;4898438;29;20047;-83
2023/01/04 05:40:46;;;;;;;3.10;1.95;;;10.60;99.90;;;;;;4891245;29;20028;-83
2023/01/04 05:43:12;;;;;;;2.92;2.00;;;10.50;99.90;;;;;;4894730;29;20039;-83
2023/01/04 05:45:42;;;;;;;3.15;1.90;;;10.50;99.90;;;;;;4882969;29;20036;-83
2023/01/04 05:48:08;;;;;;;3.63;2.13;;;10.60;99.90;;;;;;4886498;29;20134;-82
2023/01/04 05:50:34;;;;;;;2.92;1.70;;;10.60;99.90;;;;;;4885222;29;20127;-83
2023/01/04 05:52:59;;;;;;;3.90;2.05;;;10.60;99.90;;;;;;4878707;29;20489;-85
2023/01/04 05:55:25;;;;;;;3.10;2.00;;;10.60;99.90;;;;;;4887243;29;20103;-85
2023/01/04 05:57:52;;;;;;;2.67;1.92;;;10.70;99.90;;;;;;4886192;29;20276;-84
2023/01/04 06:00:18;;;;;;;2.13;1.70;;;10.70;99.90;;;;;;4882704;29;20040;-87
2023/01/04 06:02:44;;;;;;;3.53;1.45;;;10.70;99.90;;;;;;4882242;29;20495;-86
2023/01/04 06:05:11;;;;;;;2.88;1.50;;;10.70;99.90;;;;;;4875287;29;20123;-87
2023/01/04 06:07:38;;;;;;;2.55;1.65;;;10.70;99.90;;;;;;4893198;29;20036;-89
2023/01/04 06:10:09;;;;;;;2.28;1.67;;;10.70;99.90;;;;;;4878813;29;20044;-89
2023/01/04 06:12:34;;;;;;;2.70;1.40;;;10.70;99.90;;;;;;4884406;29;20505;-88
2023/01/04 06:15:00;;;;;;;1.63;1.23;;;10.60;99.90;;;;;;4892159;29;20119;-88
2023/01/04 06:17:26;;;;;;;1.77;1.30;;;10.70;99.90;;;;;;4875761;29;20052;-86
2023/01/04 06:19:52;;;;;;;2.78;1.30;;;10.70;99.90;;;;;;4880301;29;20036;-88
2023/01/04 06:22:18;;;;;;;2.13;1.60;;;10.70;99.90;;;;;;4869979;29;20123;-88
2023/01/04 06:24:44;;;;;;;2.30;1.85;;;10.80;99.90;;;;;;4891153;29;20601;-86
2023/01/04 06:27:10;;;;;;;2.42;1.58;;;10.70;99.90;;;;;;4882071;29;20040;-88
2023/01/04 06:29:35;;;;;;;4.03;2.13;;;10.60;99.90;;;;;;4867242;29;20126;-88
2023/01/04 06:32:01;;;;;;;3.40;1.83;;;10.60;99.90;;;;;;4884159;29;20304;-89
2023/01/04 06:34:27;;;;;;;3.60;1.30;;;10.60;99.90;;;;;;4858091;29;20172;-89
2023/01/04 06:36:52;;;;;;;4.25;1.80;;;10.70;99.90;;;;;;4865379;29;20064;-89
2023/01/04 06:39:18;;;;;;;3.78;1.50;;;10.70;99.90;;;;;;4881502;29;20560;-89
2023/01/04 06:41:44;;;;;;;3.88;1.83;;;10.60;99.90;;;;;;4863979;29;20040;-89
2023/01/04 06:44:10;;;;;;;5.00;1.40;;;10.70;99.90;;;;;;4893538;29;20761;-89
2023/01/04 06:46:35;;;;;;;2.17;1.50;;;10.60;99.90;;;;;;4891274;29;20063;-90
2023/01/04 06:49:01;;;;;;;3.70;1.50;;;10.60;99.90;;;;;;4867371;29;20038;-91
2023/01/04 06:51:27;;;;;;;3.85;1.20;;;10.60;99.90;;;;;;4875609;29;20493;-89
2023/01/04 06:53:53;;;;;;;2.55;1.73;;;10.70;99.90;;;;;;4882538;29;20074;-89
2023/01/04 06:56:18;;;;;;;3.10;1.35;;;10.80;99.90;;;;;;4879424;29;20085;-90
2023/01/04 06:58:44;;;;;;;3.30;1.67;;;10.70;99.90;;;;;;4879454;29;20043;-89
2023/01/04 07:01:10;;;;;;;2.17;1.20;;;10.70;99.90;;;;;;4880406;29;20035;-89
2023/01/04 07:03:36;;;;;;;2.33;1.40;;;10.70;99.90;;;;;;4878714;29;20036;-90
2023/01/04 07:06:06;;;;;;;1.90;1.37;;;10.80;99.90;;;;;;4862019;29;20040;-89
2023/01/04 07:08:33;;;;;;;3.22;1.27;;;10.90;99.90;;;;;;4877327;29;20295;-89
2023/01/04 07:10:59;;;;;;;2.92;1.27;;;10.90;99.90;;;;;;4862380;29;20036;-89
2023/01/04 07:13:25;;;;;;;2.00;1.35;;;10.90;99.90;;;;;;4891400;29;20035;-90
2023/01/04 07:15:50;;;;;;;3.75;1.73;;;10.90;99.90;;;;;;4863176;29;20040;-88
2023/01/04 07:18:16;;;;;;;2.20;1.38;;;10.90;99.90;;;;;;4863885;29;20056;-89
2023/01/04 07:20:42;;;;;;;3.38;1.80;;;10.80;99.90;;;;;;4881711;29;20151;-89
2023/01/04 07:23:08;;;;;;;4.32;2.15;;;10.70;99.90;;;;;;4885129;29;20036;-89
2023/01/04 07:25:34;;;;;;;4.20;2.60;;;10.80;99.90;;;;;;4878958;29;20473;-88
2023/01/04 07:28:01;;;;;;;5.47;2.63;;;10.80;99.90;;;;;;4869276;29;20052;-90
2023/01/04 07:30:27;;;;;;;;;;;10.90;99.90;;;;;;4892232;29;20131;-90
2023/01/04 07:32:54;;;;;;;3.55;2.05;;;10.90;99.90;;;;;;4885830;29;19966;-89
2023/01/04 07:35:19;;;;;;;7.57;2.53;;;10.90;99.90;;;;;;4873109;29;20044;-80
2023/01/04 07:37:45;;;;;;;2.67;1.63;;;10.80;99.90;;;;;;4861449;29;20043;-83
2023/01/04 07:40:12;;;;;;;3.35;2.42;;;10.80;99.90;;;;;;4864108;29;20036;-83
2023/01/04 07:42:37;;;;;;;;;;;10.90;99.90;;;;;;4883475;29;20044;-83
2023/01/04 07:45:05;;;;;;;4.18;2.03;;;10.80;99.90;;;;;;4880781;29;19923;-83
2023/01/04 07:47:31;;;;;;;6.97;2.22;;;10.80;99.90;;;;;;4874395;29;20051;-83
2023/01/04 07:49:56;;;;;;;4.20;2.05;;;10.80;99.90;;;;;;4865521;29;20052;-83
2023/01/04 07:52:22;;;;;;;4.40;2.08;;;10.80;99.90;;;;;;4873942;29;20050;-83
2023/01/04 07:54:48;;;;;;;4.20;1.70;;;10.80;99.90;;;;;;4878419;29;20473;-83
2023/01/04 07:57:14;;;;;;;2.70;1.50;;;10.80;99.90;;;;;;4865167;29;20032;-83
2023/01/04 07:59:39;;;;;;;3.35;1.60;;;10.80;99.90;;;;;;4878355;29;20074;-83
2023/01/04 08:02:05;;;;;;;4.38;1.50;;;10.80;99.90;;;;;;4876389;29;20037;-83
2023/01/04 08:04:31;;;;;;;6.05;1.67;;;10.80;99.90;;;;;;4881072;29;20051;-84
2023/01/04 08:06:57;;;;;;;6.40;1.70;;;10.90;99.90;;;;;;4863865;29;20047;-84
2023/01/04 08:09:23;;;;;;;6.78;2.03;;;10.80;99.90;;;;;;4867498;29;20123;-85
2023/01/04 08:11:48;;;;;;;2.47;1.40;;;10.80;99.90;;;;;;4899877;29;20047;-86
2023/01/04 08:14:14;;;;;;;4.72;1.55;;;10.90;99.90;;;;;;4865215;29;20487;-86
2023/01/04 08:16:41;;;;;;;3.50;1.60;;;10.90;99.90;;;;;;4867612;29;20032;-85
2023/01/04 08:19:15;;;;;;;2.25;1.30;;;10.80;99.90;;;;;;4884565;29;20327;-85
2023/01/04 08:21:41;;;;;;;2.08;1.45;;;10.80;99.90;;;;;;4887658;29;20035;-85
2023/01/04 08:24:08;;;;;;;;;;;10.80;99.90;;;;;;4865245;29;20508;-86
2023/01/04 08:26:34;;;;;;;3.22;1.60;;;10.90;99.90;;;;;;4890979;29;19919;-85
2023/01/04 08:28:59;;;;;;;2.20;1.60;;;10.80;99.90;;;;;;4864433;29;20059;-85
2023/01/04 08:31:28;;;;;;;2.53;1.40;;;10.80;99.90;;;;;;4865963;29;20374;-85
2023/01/04 08:33:55;;;;;;;3.13;1.92;;;10.80;99.90;;;;;;4886889;29;20292;-86
2023/01/04 08:36:32;;;;;;;3.22;1.67;;;10.80;99.90;;;;;;4893976;29;20048;-85
2023/01/04 08:39:00;;;;;;;3.90;1.52;;;10.80;99.90;;;;;;4888974;29;20036;-86
2023/01/04 08:41:26;;;;;;;3.55;1.67;;;10.90;99.90;;;;;;4894123;29;20122;-86
2023/01/04 08:43:52;;;;;;;2.15;1.02;;;10.90;99.90;;;;;;4891589;29;20176;-87
2023/01/04 08:46:17;;;;;;;5.47;1.63;;;10.90;99.90;;;;;;4862146;29;20040;-86
2023/01/04 08:48:43;;;;;;;2.35;1.40;;;10.80;99.90;;;;;;4891399;29;20047;-88
2023/01/04 08:51:12;;;;;;;3.97;1.30;;;10.80;99.90;;;;;;4885064;29;20043;-89
2023/01/04 08:53:38;;;;;;;2.15;1.20;;;10.90;99.90;;;;;;4903417;29;20113;-89
2023/01/04 08:56:05;;;;;;;;;;;10.80;99.90;;;;;;4887902;29;20138;-89
2023/01/04 08:58:31;;;;;;;4.33;1.20;;;10.90;99.90;;;;;;4897396;29;19919;-88
2023/01/04 09:01:08;;;;;;;2.28;1.10;;;10.80;99.90;;;;;;4872779;29;20040;-88
2023/01/04 09:03:34;;;;;;;4.05;1.17;;;10.80;99.90;;;;;;4905710;29;20040;-88
2023/01/04 09:06:12;;;;;;;1.50;0.80;;;10.80;99.90;;;;;;4875715;29;20039;-88
2023/01/04 09:08:39;;;;;;;4.72;1.10;;;10.80;99.90;;;;;;4895071;29;20044;-89
2023/01/04 09:11:16;;;;;;;3.75;1.40;;;10.80;99.90;;;;;;4891932;29;20492;-89
2023/01/04 09:13:43;;;;;;;2.53;1.08;;;10.90;99.90;;;;;;4888841;29;20107;-89
2023/01/04 09:16:12;;;;;;;3.47;1.30;;;10.90;99.90;;;;;;4879042;29;20059;-89
2023/01/04 09:18:38;;;;;;;5.35;1.40;;;10.90;99.90;;;;;;4887773;29;20044;-91
2023/01/04 09:21:09;;;;;;;4.28;1.30;;;10.90;99.90;;;;;;4892961;29;20052;-90
2023/01/04 09:23:36;;;;;;;2.55;1.33;;;10.90;99.90;;;;;;4904925;29;20489;-91
2023/01/04 09:26:11;;;;;;;6.00;1.52;;;10.90;99.90;;;;;;4894070;29;20056;-89
2023/01/04 09:28:40;;;;;;;5.13;1.50;;;10.90;99.90;;;;;;4890270;29;20130;-89
2023/01/04 09:31:17;;;;;;;4.55;1.70;;;10.90;99.90;;;;;;4893581;29;20039;-90
2023/01/04 09:33:44;;;;;;;5.05;1.90;;;10.90;99.90;;;;;;4892690;29;20079;-88
2023/01/04 09:36:15;;;;;;;4.63;2.03;;;10.90;99.90;;;;;;4884248;29;20050;-90
2023/01/04 09:38:41;;;;;;;10.50;3.08;;;10.90;99.90;;;;;;4891358;29;20722;-91
2023/01/04 09:41:13;;;;;;;9.23;2.92;;;10.90;99.90;;;;;;4893182;29;20039;-88
2023/01/04 09:43:53;;;;;;;7.03;2.50;;;10.90;99.90;;;;;;4892506;29;20043;-89
2023/01/04 09:46:24;;;;;;;6.53;2.63;;;10.90;99.90;;;;;;4894725;29;20108;-90
2023/01/04 09:48:52;;;;;;;7.32;2.75;;;10.90;99.90;;;;;;4896330;29;20040;-90
2023/01/04 09:51:24;;;;;;;8.32;2.83;;;10.90;99.90;;;;;;4884779;29;20080;-89
2023/01/04 09:53:57;;;;;;;4.70;2.08;;;11.00;99.90;;;;;;4904033;29;20107;-91
2023/01/04 09:56:32;;;;;;;6.07;2.28;;;11.00;99.90;;;;;;4891245;29;20042;-86
2023/01/04 09:59:00;;;;;;;7.97;2.50;;;11.00;99.90;;;;;;4885259;29;20036;-89
2023/01/04 10:01:42;;;;;;;9.13;2.20;;;11.00;99.90;;;;;;4890403;29;20600;-90
2023/01/04 10:04:19;;;;;;;6.18;2.45;;;11.10;99.90;;;;;;4904754;29;20117;-90
2023/01/04 10:06:46;;;;;;;8.20;2.50;;;11.10;99.90;;;;;;4892634;29;20071;-86
2023/01/04 10:09:14;;;;;;;8.32;2.10;;;11.10;99.90;;;;;;4863279;29;20040;-86
2023/01/04 10:12:04;;;;;;;7.65;2.30;;;11.10;99.90;;;;;;4879009;29;20048;-85
2023/01/04 10:14:51;;;;;;;12.40;2.85;;;11.10;99.90;;;;;;4878223;29;20616;-86
2023/01/04 10:18:02;;;;;;;12.15;2.35;;;11.20;99.90;;;;;;4897226;29;20043;-85
2023/01/04 10:20:49;;;;;;;10.50;2.63;;;11.30;99.90;;;;;;4887539;29;20044;-92
2023/01/04 10:23:25;;;;;;;11.88;2.60;;;11.70;99.90;;;;;;4891003;29;20036;-91
2023/01/04 10:25:56;;;;;;;12.02;2.28;;;11.30;99.90;;;;;;4895551;29;20036;-90
2023/01/04 10:28:46;;;;;;;11.07;2.72;;;11.30;99.90;;;;;;4910079;29;20039;-90
2023/01/04 10:31:23;;;;;;;10.15;2.58;;;11.30;99.90;;;;;;4896542;29;20039;-90
2023/01/04 10:33:51;;;;;;;10.70;3.30;;;11.40;99.90;;;;;;4888287;29;20127;-89
2023/01/04 10:36:20;;;;;;;12.70;2.33;;;11.40;99.90;;;;;;4887062;29;20044;-89
2023/01/04 10:38:50;;;;;;;11.95;2.63;;;11.40;99.90;;;;;;4897112;29;20047;-88
2023/01/04 10:41:23;;;;;;;14.82;3.25;;;11.50;99.90;;;;;;4907750;29;20441;-88
2023/01/04 10:44:37;;;;;;;16.20;2.58;;;11.40;99.90;;;;;;4876498;29;20036;-88
2023/01/04 10:47:08;;;;;;;19.10;3.17;;;11.40;99.90;;;;;;4894320;29;20051;-89
2023/01/04 10:49:48;;;;;;;17.88;3.53;;;11.50;99.90;;;;;;4889077;29;20493;-88
2023/01/04 10:52:35;;;;;;;16.70;3.00;;;11.50;99.90;;;;;;4889717;29;20127;-88
2023/01/04 10:55:09;;;;;;;15.93;3.65;;;11.50;99.90;;;;;;4895099;29;20119;-88
2023/01/04 10:58:03;;;;;;;26.92;4.97;;;11.50;99.90;;;;;;4887365;29;20048;-88
2023/01/04 11:00:37;;;;;;;17.45;3.33;;;11.50;99.90;;;;;;4891196;29;20059;-87
2023/01/04 11:03:27;;;;;;;25.63;4.00;;;11.60;99.90;;;;;;4888121;29;20047;-88
2023/01/04 11:05:59;;;;;;;28.98;4.30;;;11.60;99.90;;;;;;4898675;29;20050;-87
2023/01/04 11:08:35;;;;;;;15.85;3.83;;;11.60;99.90;;;;;;4903227;29;20055;-88
2023/01/04 11:11:12;;;;;;;21.30;3.42;;;11.60;99.90;;;;;;4901587;29;20024;-88
2023/01/04 11:13:38;;;;;;;;;;;11.70;99.90;;;;;;4884985;29;20047;-88
2023/01/04 11:16:05;;;;;;;22.58;3.45;;;11.70;99.90;;;;;;4880415;29;19923;-88
2023/01/04 11:18:35;;;;;;;25.25;4.38;;;11.70;99.90;;;;;;4886248;29;20054;-88
2023/01/04 11:21:05;;;;;;;16.73;3.67;;;11.70;99.90;;;;;;4896238;29;20040;-87
2023/01/04 11:23:31;;;;;;;18.20;3.55;;;11.70;99.90;;;;;;4913509;29;20071;-88
2023/01/04 11:25:59;;;;;;;22.77;3.95;;;11.70;99.90;;;;;;4872641;29;20078;-88
2023/01/04 11:28:36;;;;;;;16.73;2.97;;;11.70;99.90;;;;;;4886694;29;20098;-87
2023/01/04 11:31:08;;;;;;;17.08;2.83;;;11.70;99.90;;;;;;4895828;29;20040;-87
2023/01/04 11:33:56;;;;;;;20.70;3.63;;;11.70;99.90;;;;;;4890910;29;20090;-87
2023/01/04 11:36:51;;;;;;;25.55;4.00;;;11.70;99.90;;;;;;4887551;29;20046;-87
2023/01/04 11:39:18;;;;;;;28.35;5.18;;;11.60;99.90;;;;;;4870255;29;20059;-89
2023/01/04 11:41:57;;;;;;;19.92;3.88;;;11.60;99.90;;;;;;4908264;29;20071;-89
2023/01/04 11:44:25;;;;;;;25.85;4.20;;;11.50;99.90;;;;;;4885235;29;20050;-90
2023/01/04 11:47:20;;;;;;;28.48;4.28;;;11.50;99.90;;;;;;4891310;29;20044;-91
2023/01/04 11:49:47;;;;;;;27.48;3.72;;;11.50;99.90;;;;;;4893438;29;20095;-90
2023/01/04 11:52:34;;;;;;;26.50;4.85;;;11.50;99.90;;;;;;4878044;29;20075;-91
2023/01/04 11:55:23;;;;;;;23.17;4.07;;;11.60;99.90;;;;;;4889071;29;20449;-92
2023/01/04 11:58:04;;;;;;;18.90;3.30;;;11.60;99.90;;;;;;4888105;29;20032;-91
2023/01/04 12:00:30;;;;;;;24.85;4.30;;;11.70;99.90;;;;;;4894463;29;20409;-92
2023/01/04 12:03:10;;;;;;;25.40;3.45;;;11.70;99.90;;;;;;4885424;29;20043;-89
2023/01/04 12:05:36;;;;;;;14.73;3.70;;;11.70;99.90;;;;;;4891468;29;20092;-90
2023/01/04 12:08:02;;;;;;;20.13;3.33;;;11.70;99.90;;;;;;4866549;29;20040;-91
2023/01/04 12:10:28;;;;;;;25.13;4.25;;;11.70;99.90;;;;;;4878349;29;20048;-91
2023/01/04 12:12:55;;;;;;;21.60;3.30;;;11.70;99.90;;;;;;4880128;29;20507;-90
2023/01/04 12:15:47;;;;;;;17.27;3.72;;;11.60;99.90;;;;;;4904280;29;20048;-90
2023/01/04 12:18:28;;;;;;;15.63;3.72;;;11.70;99.90;;;;;;4911599;29;20071;-90
2023/01/04 12:20:59;;;;;;;20.52;3.97;;;11.70;99.90;;;;;;4881611;29;20064;-90
2023/01/04 12:23:25;;;;;;;19.05;3.03;;;11.60;99.90;;;;;;4875676;29;20036;-90
2023/01/04 12:25:52;;;;;;;15.27;3.13;;;11.60;99.90;;;;;;4879532;29;20454;-90
2023/01/04 12:28:35;;;;;;;15.75;2.72;;;11.60;99.90;;;;;;4890445;29;20044;-90
2023/01/04 12:31:20;;;;;;;12.20;2.67;;;11.70;99.90;;;;;;4886490;29;20040;-90
2023/01/04 12:33:48;;;;;;;13.82;2.70;;;11.70;99.90;;;;;;4880656;29;20049;-89
2023/01/04 12:36:43;;;;;;;15.10;2.53;;;11.80;99.90;;;;;;4895272;29;20043;-91
2023/01/04 12:39:15;;;;;;;11.05;2.38;;;11.80;99.90;;;;;;4876746;29;20047;-90
2023/01/04 12:41:42;;;;;;;15.15;2.40;;;11.80;99.90;;;;;;4884294;29;20064;-86
2023/01/04 12:44:35;;;;;;;10.40;2.40;;;11.80;99.90;;;;;;4887236;29;20039;-90
2023/01/04 12:50:12;;;;;;;11.50;3.03;;;11.80;99.90;;;;;;4887568;29;20040;-89
2023/01/04 12:52:49;;;;;;;12.68;1.88;;;11.90;99.90;;;;;;4888498;29;20048;-89
2023/01/04 12:55:18;;;;;;;14.77;2.15;;;11.80;99.90;;;;;;4888610;29;20128;-90
2023/01/04 12:57:44;;;;;;;10.18;2.03;;;11.80;99.90;;;;;;4883970;29;20043;-90
2023/01/04 13:00:12;;;;;;;7.45;1.70;;;11.80;99.90;;;;;;4864976;29;20396;-90
2023/01/04 13:02:46;;;;;;;6.05;1.70;;;11.80;99.90;;;;;;4876837;29;20037;-90
2023/01/04 13:05:18;;;;;;;8.50;2.13;;;11.80;99.90;;;;;;4876030;29;20037;-90
2023/01/04 13:07:45;;;;;;;9.02;1.85;;;11.80;99.90;;;;;;4883716;29;20048;-88
2023/01/04 13:10:20;;;;;;;11.38;2.45;;;11.80;99.90;;;;;;4898525;29;20850;-91
2023/01/04 13:12:58;;;;;;;14.35;1.98;;;11.70;99.90;;;;;;4887567;29;20041;-88
2023/01/04 13:15:35;;;;;;;9.60;1.80;;;11.70;99.90;;;;;;4906297;29;20516;-89
2023/01/04 13:18:01;;;;;;;7.55;1.75;;;11.70;99.90;;;;;;4894537;29;20413;-89
2023/01/04 13:20:29;;;;;;;;;;;11.90;99.90;;;;;;4858558;29;20041;-89
2023/01/04 13:22:57;;;;;;;;;;;11.80;99.90;;;;;;4885255;29;19926;-89
2023/01/04 13:25:23;;;;;;;;;;;11.80;99.90;;;;;;4901845;29;19919;-89
2023/01/04 13:28:03;;;;;;;14.27;1.92;;;11.80;99.90;;;;;;4888374;29;19978;-89
2023/01/04 13:30:40;;;;;;;15.73;3.03;;;11.80;99.90;;;;;;4885869;29;20041;-90
2023/01/04 13:33:18;;;;;;;18.15;2.83;;;11.80;99.90;;;;;;4887091;29;20361;-89
2023/01/04 13:35:45;;;;;;;19.20;3.05;;;11.80;99.90;;;;;;4884907;29;20166;-90
2023/01/04 13:38:15;;;;;;;14.65;2.50;;;11.80;99.90;;;;;;4908061;29;20044;-90
2023/01/04 13:40:45;;;;;;;13.43;2.63;;;11.80;99.90;;;;;;4875965;29;20044;-89
2023/01/04 13:43:14;;;;;;;22.35;2.63;;;11.80;99.90;;;;;;4884174;29;20040;-90
2023/01/04 13:46:12;;;;;;;14.45;2.90;;;11.80;99.90;;;;;;4877538;29;20044;-89
2023/01/04 13:48:42;;;;;;;15.75;2.70;;;11.80;99.90;;;;;;4849174;29;20406;-89
2023/01/04 13:51:16;;;;;;;17.05;2.55;;;11.80;99.90;;;;;;4886791;29;20488;-89